sensor_id;sensor_type;location;lat;lon;timestamp;temperature;humidity
65044;DHT22;51617;48.158;16.464;2022-12-17T20:34:29;23.30;89.10
65044;DHT22;51617;48.158;16.464;2022-12-17T20:36:56;24.30;81.80
65044;DHT22;51617;48.158;16.464;2022-12-17T20:39:22;24.60;79.40
65044;DHT22;51617;48.158;16.464;2022-12-17T20:41:48;24.80;80.20
65044;DHT22;51617;48.158;16.464;2022-12-17T20:44:15;25.00;78.20
65044;DHT22;51617;48.158;16.464;2022-12-17T20:46:41;25.10;77.60
65044;DHT22;51617;48.158;16.464;2022-12-17T20:49:11;25.10;77.40
65044;DHT22;51617;48.158;16.464;2022-12-17T20:51:39;25.00;77.20
65044;DHT22;51617;48.158;16.464;2022-12-17T20:54:05;25.00;76.90
65044;DHT22;51617;48.158;16.464;2022-12-17T20:56:34;25.00;76.60
65044;DHT22;51617;48.158;16.464;2022-12-17T20:59:03;25.00;76.40
65044;DHT22;51617;48.158;16.464;2022-12-17T21:01:32;25.00;76.90
65044;DHT22;51617;48.158;16.464;2022-12-17T21:03:59;25.00;76.10
65044;DHT22;51617;48.158;16.464;2022-12-17T21:06:30;24.90;76.00
65044;DHT22;51617;48.158;16.464;2022-12-17T21:08:57;24.90;75.90
65044;DHT22;51617;48.158;16.464;2022-12-17T21:11:27;24.90;76.10
65044;DHT22;51617;48.158;16.464;2022-12-17T21:13:53;24.80;75.60
65044;DHT22;51617;48.158;16.464;2022-12-17T21:16:25;24.70;75.70
65044;DHT22;51617;48.158;16.464;2022-12-17T21:18:51;24.70;75.60
65044;DHT22;51617;48.158;16.464;2022-12-17T21:21:20;24.70;75.40
65044;DHT22;51617;48.158;16.464;2022-12-17T21:23:48;24.70;75.20
65044;DHT22;51617;48.158;16.464;2022-12-17T21:26:19;24.70;75.20
65044;DHT22;51617;48.158;16.464;2022-12-17T21:28:46;24.70;75.10
65044;DHT22;51617;48.158;16.464;2022-12-17T21:31:31;24.70;74.80
65044;DHT22;51617;48.158;16.464;2022-12-17T21:34:01;24.70;75.30
65044;DHT22;51617;48.158;16.464;2022-12-17T21:36:32;24.60;75.30
65044;DHT22;51617;48.158;16.464;2022-12-17T21:39:06;24.50;75.30
65044;DHT22;51617;48.158;16.464;2022-12-17T21:41:38;24.40;75.20
65044;DHT22;51617;48.158;16.464;2022-12-17T21:44:05;24.40;75.60
65044;DHT22;51617;48.158;16.464;2022-12-17T21:46:31;24.30;75.30
65044;DHT22;51617;48.158;16.464;2022-12-17T21:48:59;23.90;75.50
65044;DHT22;51617;48.158;16.464;2022-12-17T21:51:27;23.80;76.10
65044;DHT22;51617;48.158;16.464;2022-12-17T21:53:59;23.70;76.40
65044;DHT22;51617;48.158;16.464;2022-12-17T21:56:26;23.60;77.50
65044;DHT22;51617;48.158;16.464;2022-12-17T21:59:01;23.50;77.20
65044;DHT22;51617;48.158;16.464;2022-12-17T22:01:33;23.40;77.50
65044;DHT22;51617;48.158;16.464;2022-12-17T22:04:00;23.40;77.70
65044;DHT22;51617;48.158;16.464;2022-12-17T22:06:29;23.30;78.00
65044;DHT22;51617;48.158;16.464;2022-12-17T22:08:58;23.30;77.90
65044;DHT22;51617;48.158;16.464;2022-12-17T22:11:25;23.40;77.90
65044;DHT22;51617;48.158;16.464;2022-12-17T22:13:53;23.40;78.00
65044;DHT22;51617;48.158;16.464;2022-12-17T22:16:44;23.30;78.10
65044;DHT22;51617;48.158;16.464;2022-12-17T22:19:20;23.40;77.80
65044;DHT22;51617;48.158;16.464;2022-12-17T22:21:51;23.60;77.60
65044;DHT22;51617;48.158;16.464;2022-12-17T22:24:21;23.60;77.50
65044;DHT22;51617;48.158;16.464;2022-12-17T22:26:50;23.50;77.50
65044;DHT22;51617;48.158;16.464;2022-12-17T22:29:20;23.50;77.80
65044;DHT22;51617;48.158;16.464;2022-12-17T22:32:04;23.60;77.60
65044;DHT22;51617;48.158;16.464;2022-12-17T22:34:48;23.40;77.80
65044;DHT22;51617;48.158;16.464;2022-12-17T22:37:14;23.30;78.20
65044;DHT22;51617;48.158;16.464;2022-12-17T22:39:39;23.10;78.10
65044;DHT22;51617;48.158;16.464;2022-12-17T22:42:05;23.10;78.30
65044;DHT22;51617;48.158;16.464;2022-12-17T22:44:49;23.10;74.20
65044;DHT22;51617;48.158;16.464;2022-12-17T22:47:15;23.00;67.10
65044;DHT22;51617;48.158;16.464;2022-12-17T22:49:41;22.90;68.60
65044;DHT22;51617;48.158;16.464;2022-12-17T22:52:06;22.60;73.20
65044;DHT22;51617;48.158;16.464;2022-12-17T22:54:32;22.60;74.70
65044;DHT22;51617;48.158;16.464;2022-12-17T22:56:57;22.60;75.10
65044;DHT22;51617;48.158;16.464;2022-12-17T22:59:23;22.60;75.00
65044;DHT22;51617;48.158;16.464;2022-12-17T23:01:49;22.60;75.10
65044;DHT22;51617;48.158;16.464;2022-12-17T23:04:15;22.60;75.30
65044;DHT22;51617;48.158;16.464;2022-12-17T23:06:42;22.60;75.50
65044;DHT22;51617;48.158;16.464;2022-12-17T23:09:10;22.60;75.50
65044;DHT22;51617;48.158;16.464;2022-12-17T23:11:35;22.60;75.50
65044;DHT22;51617;48.158;16.464;2022-12-17T23:14:01;22.60;76.20
65044;DHT22;51617;48.158;16.464;2022-12-17T23:16:27;22.50;75.60
65044;DHT22;51617;48.158;16.464;2022-12-17T23:18:52;22.50;75.90
65044;DHT22;51617;48.158;16.464;2022-12-17T23:21:22;22.50;75.90
65044;DHT22;51617;48.158;16.464;2022-12-17T23:23:49;22.50;76.00
65044;DHT22;51617;48.158;16.464;2022-12-17T23:26:17;22.50;76.10
65044;DHT22;51617;48.158;16.464;2022-12-17T23:28:44;22.40;76.20
65044;DHT22;51617;48.158;16.464;2022-12-17T23:31:15;22.50;76.20
65044;DHT22;51617;48.158;16.464;2022-12-17T23:33:42;22.60;76.20
65044;DHT22;51617;48.158;16.464;2022-12-17T23:36:11;22.60;76.00
65044;DHT22;51617;48.158;16.464;2022-12-17T23:38:37;22.50;76.00
65044;DHT22;51617;48.158;16.464;2022-12-17T23:41:08;22.50;76.00
65044;DHT22;51617;48.158;16.464;2022-12-17T23:43:34;22.50;76.20
65044;DHT22;51617;48.158;16.464;2022-12-17T23:46:00;22.50;76.20
65044;DHT22;51617;48.158;16.464;2022-12-17T23:48:30;22.50;76.80
65044;DHT22;51617;48.158;16.464;2022-12-17T23:50:58;22.60;75.90
65044;DHT22;51617;48.158;16.464;2022-12-17T23:53:27;22.60;76.20
65044;DHT22;51617;48.158;16.464;2022-12-17T23:55:54;22.60;76.00
65044;DHT22;51617;48.158;16.464;2022-12-17T23:58:19;22.60;75.90
